Time;durP1;ratioP1;P1;durP2;ratioP2;P2;SDS_P1;SDS_P2;PMS_P1;PMS_P2;Temp;Humidity;BMP_temperature;BMP_pressure;BME280_temperature;BME280_humidity;BME280_pressure;Samples;Min_cycle;Max_cycle;Signal;HPM_P1;HPM_P2
2024/01/01 00:03:22;;;;;;;18.05;4.30;;;;;;;10.07;77.85;99182.25;8314615;28;20605;-56
2024/01/01 00:07:22;;;;;;;11.68;3.92;;;;;;;9.99;77.72;99173.13;8331143;28;20483;-55
2024/01/01 00:11:24;;;;;;;17.98;3.92;;;;;;;10.06;78.21;99175.97;8330598;28;20044;-56
2024/01/01 00:15:24;;;;;;;8.35;3.33;;;;;;;10.13;76.80;99178.88;8330465;28;20033;-56
2024/01/01 00:19:25;;;;;;;7.43;2.25;;;;;;;10.26;75.88;99171.94;8331626;28;20587;-55
2024/01/01 00:23:25;;;;;;;6.32;1.75;;;;;;;10.30;75.29;99153.53;8329853;28;20049;-55
2024/01/01 00:27:26;;;;;;;12.35;2.05;;;;;;;10.26;75.34;99161.16;8330308;28;20124;-55
2024/01/01 00:31:26;;;;;;;12.07;1.90;;;;;;;10.17;75.12;99150.53;8334646;28;20068;-55
2024/01/01 00:35:26;;;;;;;9.90;1.90;;;;;;;10.15;74.82;99153.38;8333609;28;20076;-57
2024/01/01 00:39:27;;;;;;;9.63;1.60;;;;;;;10.09;75.32;99155.94;8335800;28;20045;-56
2024/01/01 00:43:28;;;;;;;7.75;2.05;;;;;;;9.93;76.60;99159.47;8335871;28;20048;-55
2024/01/01 00:47:28;;;;;;;10.52;2.42;;;;;;;9.86;76.53;99169.25;8352732;28;20052;-57
2024/01/01 00:51:29;;;;;;;16.42;1.73;;;;;;;9.95;76.05;99170.94;8312217;28;20036;-56
2024/01/01 00:55:31;;;;;;;14.68;2.83;;;;;;;10.15;74.41;99166.88;8286798;28;20131;-55
2024/01/01 00:59:32;;;;;;;5.90;2.17;;;;;;;10.38;72.17;99186.78;8267528;28;20048;-55
2024/01/01 01:03:35;;;;;;;10.68;2.63;;;;;;;10.44;72.55;99186.09;8269695;28;20296;-55
2024/01/01 01:07:36;;;;;;;9.15;1.40;;;;;;;10.43;72.79;99167.38;8270317;28;20335;-55
2024/01/01 01:11:40;;;;;;;9.15;2.00;;;;;;;10.39;72.69;99177.66;8276466;28;20045;-57
2024/01/01 01:15:40;;;;;;;12.50;1.70;;;;;;;10.44;72.16;99175.28;8323283;28;20087;-55
2024/01/01 01:19:41;;;;;;;14.02;1.75;;;;;;;10.46;72.60;99177.81;8338064;28;20577;-54
2024/01/01 01:23:42;;;;;;;8.15;1.90;;;;;;;10.44;72.35;99169.91;8332436;28;20558;-55
2024/01/01 01:27:43;;;;;;;10.35;1.63;;;;;;;10.44;72.59;99163.63;8287668;28;20491;-55
2024/01/01 01:31:46;;;;;;;7.93;1.80;;;;;;;10.46;72.37;99157.03;8287419;28;20373;-57
2024/01/01 01:35:46;;;;;;;13.98;1.90;;;;;;;10.46;71.92;99150.81;8284964;28;20043;-57
2024/01/01 01:39:46;;;;;;;11.10;1.58;;;;;;;10.58;71.39;99160.22;8285972;28;20215;-57
2024/01/01 01:43:47;;;;;;;9.73;1.60;;;;;;;10.44;73.06;99167.19;8278623;28;20353;-55
2024/01/01 01:47:48;;;;;;;12.73;1.77;;;;;;;10.20;73.58;99151.03;8267543;28;20072;-57
2024/01/01 01:51:49;;;;;;;14.02;1.52;;;;;;;10.30;73.71;99159.78;8276871;28;20380;-57
2024/01/01 01:55:53;;;;;;;7.75;1.50;;;;;;;10.30;74.54;99167.88;8299113;28;20545;-56
2024/01/01 01:59:54;;;;;;;9.65;1.02;;;;;;;10.15;77.31;99164.19;8300814;28;20135;-56
2024/01/01 02:03:55;;;;;;;11.45;1.42;;;;;;;10.02;79.14;99158.44;8313847;28;20583;-57
2024/01/01 02:07:55;;;;;;;11.07;2.00;;;;;;;9.95;80.02;99162.84;8302099;28;20072;-57
2024/01/01 02:11:56;;;;;;;11.70;1.83;;;;;;;9.88;81.43;99161.81;8301102;28;20099;-56
2024/01/01 02:15:57;;;;;;;9.85;2.00;;;;;;;9.79;83.58;99169.06;8301886;28;20033;-57
2024/01/01 02:19:57;;;;;;;6.72;1.33;;;;;;;9.65;85.48;99175.16;8336392;28;20043;-56
2024/01/01 02:23:58;;;;;;;14.15;2.15;;;;;;;9.59;86.46;99166.88;8301279;28;20149;-56
2024/01/01 02:27:58;;;;;;;8.77;1.42;;;;;;;9.43;88.18;99150.69;8302211;28;20783;-56
2024/01/01 02:31:59;;;;;;;8.40;1.33;;;;;;;9.39;88.71;99152.00;8299968;28;20496;-56
2024/01/01 02:35:59;;;;;;;8.77;1.55;;;;;;;9.43;88.48;99161.47;8300959;28;20025;-57
2024/01/01 02:40:01;;;;;;;12.25;1.85;;;;;;;9.47;87.38;99157.44;8301716;28;20605;-58
2024/01/01 02:44:03;;;;;;;19.67;1.83;;;;;;;9.46;86.88;99158.44;8298385;28;20543;-57
2024/01/01 02:48:03;;;;;;;11.95;1.65;;;;;;;9.44;87.94;99157.75;8315488;28;20495;-56
2024/01/01 02:52:05;;;;;;;15.25;2.30;;;;;;;9.35;89.91;99169.53;8353823;28;20529;-57
2024/01/01 02:56:25;;;;;;;15.88;2.05;;;;;;;9.41;87.80;99168.88;8352897;28;20033;-57
2024/01/01 03:00:26;;;;;;;9.82;1.85;;;;;;;9.31;88.72;99168.19;8297153;28;20717;-56
2024/01/01 03:04:30;;;;;;;10.63;2.00;;;;;;;9.30;87.85;99169.22;8296377;28;20060;-57
2024/01/01 03:08:31;;;;;;;11.55;2.13;;;;;;;9.40;86.87;99172.59;8301914;28;20270;-57
2024/01/01 03:12:34;;;;;;;12.38;2.47;;;;;;;9.40;86.02;99148.31;8300995;28;20047;-58
2024/01/01 03:16:36;;;;;;;18.33;2.85;;;;;;;9.52;84.90;99160.47;8301602;28;20040;-58
2024/01/01 03:20:37;;;;;;;14.52;2.80;;;;;;;9.66;83.34;99167.88;8298355;28;20043;-58
2024/01/01 03:24:37;;;;;;;17.75;2.33;;;;;;;9.78;82.63;99172.81;8306033;28;20064;-56
2024/01/01 03:28:39;;;;;;;16.02;2.13;;;;;;;9.82;82.31;99174.13;8356721;28;20040;-58
2024/01/01 03:32:40;;;;;;;12.90;2.25;;;;;;;9.85;81.40;99184.59;8356531;28;20399;-58
2024/01/01 03:36:40;;;;;;;13.98;1.73;;;;;;;9.87;81.00;99179.88;8351828;28;20091;-59
2024/01/01 03:40:42;;;;;;;13.40;1.90;;;;;;;9.90;80.13;99192.19;8356133;28;20040;-58
2024/01/01 03:44:43;;;;;;;19.00;2.28;;;;;;;9.88;79.79;99183.41;8355950;28;20057;-59
2024/01/01 03:48:43;;;;;;;13.70;2.10;;;;;;;9.87;79.58;99185.28;8355753;28;20063;-59
2024/01/01 03:52:44;;;;;;;16.25;2.60;;;;;;;9.78;79.70;99193.53;8356101;28;20045;-59
2024/01/01 03:56:44;;;;;;;14.15;1.70;;;;;;;9.79;79.78;99195.25;8292914;28;20118;-55
2024/01/01 04:00:45;;;;;;;12.10;2.20;;;;;;;9.87;79.71;99197.94;8299600;28;25535;-58
2024/01/01 04:04:45;;;;;;;12.00;1.65;;;;;;;9.91;79.48;99204.66;8302205;28;20036;-57
2024/01/01 04:08:46;;;;;;;11.48;2.15;;;;;;;9.94;79.92;99204.34;8307018;28;20366;-57
2024/01/01 04:12:46;;;;;;;13.68;2.03;;;;;;;9.99;78.63;99204.69;8305582;28;20705;-57
2024/01/01 04:16:47;;;;;;;9.65;1.58;;;;;;;10.02;78.41;99197.09;8306226;28;20564;-56
2024/01/01 04:20:47;;;;;;;14.88;2.13;;;;;;;10.01;77.37;99183.75;8304529;28;20278;-55
2024/01/01 04:24:48;;;;;;;11.18;1.83;;;;;;;9.97;77.53;99182.41;8350204;28;20430;-58
2024/01/01 04:28:49;;;;;;;16.15;1.95;;;;;;;9.87;78.19;99184.44;8305591;28;20132;-57
2024/01/01 04:32:49;;;;;;;14.88;2.50;;;;;;;9.83;77.97;99169.59;8304142;28;20503;-57
2024/01/01 04:36:49;;;;;;;12.95;1.98;;;;;;;9.86;77.29;99177.34;8305694;28;20033;-56
2024/01/01 04:40:50;;;;;;;14.75;2.13;;;;;;;9.82;77.59;99181.38;8302923;28;20358;-57
2024/01/01 04:44:52;;;;;;;11.48;1.83;;;;;;;9.87;77.28;99179.88;8304661;28;20049;-56
2024/01/01 04:48:52;;;;;;;16.10;2.10;;;;;;;9.94;77.32;99189.00;8302982;28;20041;-58
2024/01/01 04:52:53;;;;;;;20.98;1.98;;;;;;;9.89;77.25;99190.50;8311213;28;20096;-58
2024/01/01 04:56:53;;;;;;;14.55;1.83;;;;;;;9.86;77.28;99193.56;8358735;28;20092;-57
2024/01/01 05:00:54;;;;;;;10.13;1.73;;;;;;;9.83;77.29;99202.81;8360643;28;20036;-56
2024/01/01 05:04:54;;;;;;;18.65;2.75;;;;;;;9.82;77.47;99195.72;8359612;28;20047;-57
2024/01/01 05:08:55;;;;;;;21.15;2.03;;;;;;;9.92;76.80;99200.97;8359055;28;20037;-58
2024/01/01 05:12:55;;;;;;;15.40;2.25;;;;;;;9.88;76.94;99205.00;8359854;28;20033;-56
2024/01/01 05:16:56;;;;;;;15.63;2.25;;;;;;;9.86;77.38;99210.56;8357007;28;20033;-57
2024/01/01 05:20:56;;;;;;;22.27;3.20;;;;;;;9.81;76.85;99187.81;8354535;28;20098;-57
2024/01/01 05:24:57;;;;;;;16.80;2.58;;;;;;;9.80;76.79;99196.91;8300996;28;20067;-55
2024/01/01 05:28:57;;;;;;;16.27;1.70;;;;;;;9.76;77.14;99201.81;8300274;28;20309;-54
2024/01/01 05:32:57;;;;;;;16.67;2.40;;;;;;;9.74;76.82;99203.00;8302126;28;20056;-56
2024/01/01 05:36:58;;;;;;;16.17;2.10;;;;;;;9.84;76.68;99214.47;8302437;28;20056;-56
2024/01/01 05:40:58;;;;;;;9.98;1.63;;;;;;;9.81;76.71;99204.00;8302232;28;20277;-56
2024/01/01 05:44:59;;;;;;;15.68;2.20;;;;;;;9.75;76.37;99223.56;8302268;28;20191;-55
2024/01/01 05:48:59;;;;;;;19.40;2.88;;;;;;;9.74;76.93;99219.19;8302213;28;20056;-54
2024/01/01 05:53:00;;;;;;;16.05;2.00;;;;;;;9.75;76.35;99228.94;8361377;28;20037;-55
2024/01/01 05:57:00;;;;;;;18.17;2.40;;;;;;;9.84;77.00;99241.44;8361643;28;20051;-56
2024/01/01 06:01:01;;;;;;;17.30;2.17;;;;;;;9.73;79.15;99248.00;8331976;28;20267;-55
2024/01/01 06:05:01;;;;;;;14.27;1.77;;;;;;;9.66;79.78;99255.09;8305244;28;20388;-55
2024/01/01 06:09:03;;;;;;;16.80;2.65;;;;;;;9.68;79.31;99247.69;8308710;28;20033;-54
2024/01/01 06:13:04;;;;;;;12.13;3.35;;;;;;;9.66;79.64;99248.84;8304096;28;20397;-56
2024/01/01 06:17:05;;;;;;;11.32;1.73;;;;;;;9.73;79.20;99255.28;8302787;28;20275;-57
2024/01/01 06:21:05;;;;;;;22.02;2.78;;;;;;;9.90;78.93;99267.78;8303615;28;20041;-55
2024/01/01 06:25:08;;;;;;;13.88;1.85;;;;;;;9.82;80.01;99265.06;8307280;28;20066;-55
2024/01/01 06:29:08;;;;;;;14.60;2.20;;;;;;;9.68;82.78;99279.22;8344995;28;20495;-57
2024/01/01 06:33:09;;;;;;;18.13;2.00;;;;;;;9.45;85.01;99270.03;8356848;28;20456;-56
2024/01/01 06:37:09;;;;;;;15.55;2.40;;;;;;;9.39;84.62;99281.47;8354079;28;20056;-56
2024/01/01 06:41:10;;;;;;;22.15;3.50;;;;;;;9.40;84.44;99280.47;8356198;28;20131;-55
2024/01/01 06:45:10;;;;;;;14.50;2.35;;;;;;;9.37;85.04;99275.41;8357385;28;20043;-56
2024/01/01 06:49:11;;;;;;;14.82;2.47;;;;;;;9.41;84.54;99282.16;8352606;28;20496;-57
2024/01/01 06:53:11;;;;;;;14.15;2.50;;;;;;;9.51;83.12;99293.66;8386501;28;20045;-55
2024/01/01 06:57:12;;;;;;;13.73;2.05;;;;;;;9.56;83.10;99296.72;8343265;28;20396;-55
2024/01/01 07:01:14;;;;;;;12.90;1.85;;;;;;;9.57;82.74;99303.78;8302529;28;20047;-56
2024/01/01 07:05:15;;;;;;;10.15;1.83;;;;;;;9.66;82.14;99325.25;8302218;28;20121;-56
2024/01/01 07:09:16;;;;;;;11.07;2.05;;;;;;;9.66;83.18;99329.78;8304266;28;20071;-53
2024/01/01 07:13:19;;;;;;;15.93;2.17;;;;;;;9.64;83.71;99334.53;8301626;28;20253;-55
2024/01/01 07:17:20;;;;;;;11.40;1.65;;;;;;;9.63;82.59;99344.47;8305268;28;20055;-57
2024/01/01 07:21:21;;;;;;;7.65;1.17;;;;;;;9.64;83.06;99354.22;8300027;28;20028;-55
2024/01/01 07:25:21;;;;;;;12.90;1.58;;;;;;;9.65;82.67;99360.50;8314537;28;20040;-56
2024/01/01 07:29:21;;;;;;;8.90;1.30;;;;;;;9.62;83.15;99371.59;8324641;28;20112;-57
2024/01/01 07:33:22;;;;;;;12.25;1.60;;;;;;;9.58;83.68;99375.66;8301673;28;20044;-56
2024/01/01 07:37:22;;;;;;;11.27;1.63;;;;;;;9.56;84.01;99391.13;8301796;28;20134;-55
2024/01/01 07:41:23;;;;;;;6.88;1.05;;;;;;;9.49;85.23;99408.97;8310097;28;20060;-56
2024/01/01 07:45:23;;;;;;;4.95;1.10;;;;;;;9.37;86.17;99399.47;8306098;28;20037;-55
2024/01/01 07:49:24;;;;;;;7.88;1.25;;;;;;;9.25;87.73;99422.31;8304516;28;20128;-55
2024/01/01 07:53:24;;;;;;;7.03;0.80;;;;;;;9.24;86.51;99416.06;8311656;28;20064;-56
2024/01/01 07:57:24;;;;;;;6.40;0.80;;;;;;;9.18;87.77;99426.66;8336284;28;20032;-54
2024/01/01 08:01:26;;;;;;;3.30;0.50;;;;;;;9.03;89.58;99428.25;8363875;28;20045;-57
2024/01/01 08:05:26;;;;;;;5.43;0.70;;;;;;;9.05;88.54;99421.69;8361742;28;20125;-55
2024/01/01 08:09:27;;;;;;;3.72;0.88;;;;;;;9.13;87.98;99434.38;8361700;28;20496;-55
2024/01/01 08:13:27;;;;;;;4.63;0.73;;;;;;;9.13;88.42;99431.69;8360781;28;20132;-56
2024/01/01 08:17:28;;;;;;;2.17;0.75;;;;;;;9.15;87.33;99443.16;8360889;28;20329;-58
2024/01/01 08:21:28;;;;;;;5.70;0.80;;;;;;;9.11;87.13;99430.97;8358463;28;20040;-55
2024/01/01 08:25:29;;;;;;;8.13;1.20;;;;;;;9.12;87.37;99447.00;8358080;28;20060;-55
2024/01/01 08:29:29;;;;;;;2.38;0.73;;;;;;;9.19;87.55;99460.72;8359583;28;20077;-57
2024/01/01 08:33:30;;;;;;;2.28;0.63;;;;;;;9.16;86.91;99451.09;8311306;28;20106;-55
2024/01/01 08:37:30;;;;;;;7.93;1.17;;;;;;;9.16;87.77;99463.72;8303313;28;20132;-56
2024/01/01 08:41:31;;;;;;;9.07;2.33;;;;;;;9.23;87.05;99462.06;8307984;28;20611;-56
2024/01/01 08:45:31;;;;;;;4.93;0.80;;;;;;;9.24;86.90;99463.78;8305617;28;20052;-55
2024/01/01 08:49:31;;;;;;;5.47;1.00;;;;;;;9.32;86.06;99466.53;8303400;28;20028;-56
2024/01/01 08:53:32;;;;;;;3.22;0.60;;;;;;;9.36;85.51;99463.34;8304935;28;20041;-58
2024/01/01 08:57:33;;;;;;;3.65;0.60;;;;;;;9.50;85.39;99475.41;8357345;28;20051;-57
2024/01/01 09:01:33;;;;;;;3.35;0.70;;;;;;;9.59;84.81;99479.84;8360364;28;20099;-58
2024/01/01 09:05:34;;;;;;;4.07;0.85;;;;;;;9.53;85.89;99475.09;8359890;28;20047;-58
2024/01/01 09:09:34;;;;;;;20.73;9.10;;;;;;;9.57;85.93;99489.94;8358794;28;20045;-56
2024/01/01 09:13:35;;;;;;;3.67;0.95;;;;;;;9.60;85.86;99492.31;8358336;28;20287;-57
2024/01/01 09:17:35;;;;;;;6.15;0.82;;;;;;;9.54;86.59;99488.41;8356942;28;20072;-57
2024/01/01 09:21:36;;;;;;;6.38;1.10;;;;;;;9.49;86.33;99506.09;8358970;28;20511;-58
2024/01/01 09:25:39;;;;;;;5.55;0.98;;;;;;;9.44;86.69;99498.47;8357386;28;20087;-58
2024/01/01 09:29:40;;;;;;;7.00;1.03;;;;;;;9.42;86.88;99510.41;8358769;28;20453;-56
2024/01/01 09:33:40;;;;;;;5.95;0.70;;;;;;;9.48;86.69;99509.78;8353945;28;20182;-58
2024/01/01 09:37:41;;;;;;;6.50;0.90;;;;;;;9.46;87.11;99523.44;8356948;28;20037;-58
2024/01/01 09:41:41;;;;;;;6.03;0.80;;;;;;;9.51;87.51;99531.03;8356814;28;20037;-57
2024/01/01 09:45:42;;;;;;;5.05;0.90;;;;;;;9.63;87.01;99551.38;8358156;28;20045;-57
2024/01/01 09:49:43;;;;;;;6.95;0.90;;;;;;;9.70;86.89;99547.06;8357727;28;20127;-55
2024/01/01 09:53:44;;;;;;;7.00;0.80;;;;;;;9.79;85.28;99549.63;8358344;28;20052;-58
2024/01/01 09:57:45;;;;;;;4.50;1.15;;;;;;;9.81;85.68;99549.47;8357580;28;20048;-57
2024/01/01 10:02:02;;;;;;;6.57;1.17;;;;;;;9.84;85.20;99549.16;8356486;28;20136;-58
2024/01/01 10:06:08;;;;;;;5.30;1.15;;;;;;;9.81;84.85;99549.47;8339351;28;20506;-57
2024/01/01 10:10:10;;;;;;;7.72;1.33;;;;;;;9.78;85.09;99558.75;8326355;28;20048;-56
2024/01/01 10:14:11;;;;;;;8.90;1.92;;;;;;;9.77;85.09;99558.91;8324584;28;20044;-55
2024/01/01 10:18:14;;;;;;;7.35;1.33;;;;;;;9.76;85.50;99562.63;8335050;28;20037;-56
2024/01/01 10:22:15;;;;;;;11.55;1.50;;;;;;;9.76;85.62;99554.50;8340834;28;20353;-56
2024/01/01 10:26:16;;;;;;;6.50;1.20;;;;;;;9.79;85.62;99571.22;8347469;28;20037;-56
2024/01/01 10:30:17;;;;;;;13.25;2.03;;;;;;;9.83;84.81;99574.47;8340821;28;20045;-56
2024/01/01 10:34:18;;;;;;;6.22;1.77;;;;;;;9.85;85.42;99578.69;8332917;28;20037;-55
2024/01/01 10:38:19;;;;;;;7.22;1.60;;;;;;;9.87;84.00;99575.81;8334799;28;20091;-55
2024/01/01 10:42:20;;;;;;;9.65;1.40;;;;;;;10.00;82.79;99587.03;8339083;28;20041;-55
2024/01/01 10:46:21;;;;;;;10.60;1.35;;;;;;;10.12;83.06;99583.09;8332082;28;20049;-57
2024/01/01 10:50:42;;;;;;;8.60;1.30;;;;;;;10.77;81.22;99582.34;8332161;28;20091;-57
2024/01/01 10:55:11;;;;;;;5.72;1.20;;;;;;;10.94;79.68;99588.66;8331702;28;20067;-55
2024/01/01 10:59:19;;;;;;;7.25;1.75;;;;;;;11.00;78.87;99599.66;8352052;28;20155;-56
2024/01/01 11:03:19;;;;;;;6.40;0.90;;;;;;;10.80;78.14;99598.25;8328616;28;20056;-57
2024/01/01 11:07:55;;;;;;;7.38;0.63;;;;;;;10.65;79.15;99599.06;8332040;28;20060;-57
2024/01/01 11:11:56;;;;;;;4.05;0.82;;;;;;;10.81;78.93;99610.78;8329714;28;20037;-58
2024/01/01 11:15:59;;;;;;;6.28;0.93;;;;;;;11.05;77.77;99599.16;8345650;28;20042;-58
2024/01/01 11:20:06;;;;;;;10.88;0.90;;;;;;;11.11;78.44;99615.59;8330838;28;20046;-57
2024/01/01 11:24:06;;;;;;;7.93;1.27;;;;;;;11.01;78.95;99612.16;8335252;28;20041;-58
2024/01/01 11:28:43;;;;;;;7.45;0.90;;;;;;;11.20;78.60;99611.84;8332642;28;20094;-57
2024/01/01 11:32:43;;;;;;;5.53;1.10;;;;;;;11.21;78.25;99618.97;8334224;28;20443;-56
2024/01/01 11:36:44;;;;;;;11.25;1.27;;;;;;;11.43;76.68;99615.63;8335268;28;20535;-58
2024/01/01 11:40:45;;;;;;;8.30;1.73;;;;;;;11.17;76.94;99617.63;8336459;28;20642;-55
2024/01/01 11:44:45;;;;;;;6.20;1.73;;;;;;;10.69;79.83;99628.28;8329232;28;20061;-58
2024/01/01 11:48:54;;;;;;;10.95;1.42;;;;;;;10.48;80.38;99625.16;8338376;28;20550;-57
2024/01/01 11:53:02;;;;;;;9.65;1.27;;;;;;;10.42;80.90;99627.66;8334565;28;20041;-56
2024/01/01 11:57:02;;;;;;;12.02;1.58;;;;;;;10.35;81.65;99613.94;8328639;28;20128;-58
2024/01/01 12:01:04;;;;;;;12.73;2.10;;;;;;;10.38;80.65;99608.22;8346699;28;20057;-58
2024/01/01 12:05:05;;;;;;;10.68;1.50;;;;;;;10.47;81.05;99611.81;8331026;28;20044;-56
2024/01/01 12:09:09;;;;;;;17.75;2.03;;;;;;;10.52;80.28;99621.09;8328987;28;20041;-57
2024/01/01 12:13:09;;;;;;;12.93;1.63;;;;;;;10.62;80.08;99605.63;8323212;28;20061;-58
2024/01/01 12:17:10;;;;;;;12.20;1.80;;;;;;;10.75;79.81;99608.72;8328306;28;20088;-56
2024/01/01 12:21:10;;;;;;;13.60;2.05;;;;;;;10.69;80.41;99606.66;8332095;28;20068;-56
2024/01/01 12:25:16;;;;;;;10.75;2.08;;;;;;;10.68;79.62;99599.59;8333502;28;20410;-57
2024/01/01 12:29:19;;;;;;;14.45;2.08;;;;;;;10.72;79.56;99595.53;8345610;28;20485;-57
2024/01/01 12:33:19;;;;;;;11.55;2.83;;;;;;;10.68;80.16;99610.41;8352899;28;20132;-57
2024/01/01 12:37:20;;;;;;;14.40;2.70;;;;;;;10.70;79.91;99613.75;8330943;28;20037;-57
2024/01/01 12:41:20;;;;;;;16.67;3.35;;;;;;;10.62;80.57;99608.34;8338439;28;20399;-56
2024/01/01 12:45:21;;;;;;;12.70;2.40;;;;;;;10.67;79.87;99607.84;8336963;28;20092;-56
2024/01/01 12:49:21;;;;;;;19.67;3.28;;;;;;;10.70;79.43;99597.53;8338591;28;20029;-56
2024/01/01 12:53:22;;;;;;;23.67;3.13;;;;;;;10.58;79.95;99598.00;8337124;28;20041;-56
2024/01/01 12:57:22;;;;;;;18.48;3.22;;;;;;;10.62;78.97;99600.22;8331202;28;20079;-57
2024/01/01 13:01:24;;;;;;;16.50;4.03;;;;;;;10.63;80.24;99614.56;8333638;28;20040;-56
2024/01/01 13:05:24;;;;;;;24.48;3.65;;;;;;;10.60;79.88;99612.19;8335527;28;20128;-56
2024/01/01 13:09:25;;;;;;;19.13;2.60;;;;;;;10.52;80.06;99615.72;8319938;28;20042;-57
2024/01/01 13:13:25;;;;;;;16.65;2.65;;;;;;;10.47;80.06;99628.88;8312574;28;20140;-56
2024/01/01 13:17:26;;;;;;;26.88;4.47;;;;;;;10.37;80.87;99630.81;8320484;28;20392;-58
2024/01/01 13:21:28;;;;;;;18.60;2.92;;;;;;;10.32;81.17;99630.47;8331396;28;20033;-56
2024/01/01 13:25:28;;;;;;;23.23;3.70;;;;;;;10.30;81.73;99643.28;8363439;28;20041;-58
2024/01/01 13:29:29;;;;;;;14.13;2.60;;;;;;;10.22;82.26;99645.09;8335462;28;20087;-57
2024/01/01 13:33:29;;;;;;;24.67;3.38;;;;;;;10.27;81.50;99643.63;8329833;28;20042;-58
2024/01/01 13:37:30;;;;;;;16.63;2.78;;;;;;;10.25;82.05;99653.75;8328709;28;20045;-57
2024/01/01 13:41:31;;;;;;;15.63;2.97;;;;;;;10.32;81.54;99652.09;8330965;28;20044;-59
2024/01/01 13:45:31;;;;;;;22.92;4.60;;;;;;;10.30;81.78;99656.81;8327079;28;20037;-55
2024/01/01 13:49:35;;;;;;;18.88;3.28;;;;;;;10.37;80.68;99671.34;8326507;28;20029;-55
2024/01/01 13:53:36;;;;;;;14.10;2.47;;;;;;;10.34;82.00;99676.25;8320975;28;20041;-55
2024/01/01 13:57:37;;;;;;;15.57;2.88;;;;;;;10.34;82.25;99682.47;8327082;28;20079;-57
2024/01/01 14:01:38;;;;;;;14.38;3.00;;;;;;;10.27;82.58;99692.22;8326004;28;20045;-55
2024/01/01 14:05:38;;;;;;;25.75;3.25;;;;;;;10.31;82.15;99698.19;8323253;28;20172;-57
2024/01/01 14:09:39;;;;;;;23.67;3.28;;;;;;;10.32;82.53;99703.41;8347248;28;20326;-55
2024/01/01 14:13:39;;;;;;;24.88;3.50;;;;;;;10.32;82.09;99700.72;8330455;28;20799;-55
2024/01/01 14:17:39;;;;;;;18.02;2.83;;;;;;;10.32;82.85;99700.72;8328893;28;20586;-56
2024/01/01 14:21:41;;;;;;;21.13;2.58;;;;;;;10.27;82.39;99692.22;8331137;28;20198;-54
2024/01/01 14:25:43;;;;;;;28.15;3.47;;;;;;;10.21;82.67;99698.28;8326836;28;20068;-54
2024/01/01 14:29:43;;;;;;;23.17;3.35;;;;;;;10.12;82.65;99701.91;8327159;28;20073;-57
2024/01/01 14:33:46;;;;;;;30.48;3.78;;;;;;;10.08;83.13;99707.78;8331714;28;20037;-56
2024/01/01 14:37:46;;;;;;;25.67;3.70;;;;;;;10.00;83.42;99712.09;8332112;28;20064;-55
2024/01/01 14:41:47;;;;;;;20.65;3.05;;;;;;;9.98;83.95;99710.56;8334007;28;20049;-56
2024/01/01 14:45:47;;;;;;;17.35;3.60;;;;;;;9.94;84.31;99718.13;8332839;28;20268;-56
2024/01/01 14:49:49;;;;;;;23.38;4.05;;;;;;;9.94;84.68;99722.66;8332577;28;20118;-56
2024/01/01 14:53:49;;;;;;;25.80;3.42;;;;;;;9.95;84.17;99719.81;8317089;28;20418;-56
2024/01/01 14:57:50;;;;;;;22.35;2.33;;;;;;;9.91;84.10;99718.44;8314866;28;20368;-56
2024/01/01 15:01:50;;;;;;;18.95;2.60;;;;;;;9.95;84.08;99713.59;8315656;28;20040;-56
2024/01/01 15:05:51;;;;;;;21.77;2.58;;;;;;;9.96;83.85;99715.28;8314905;28;20045;-57
2024/01/01 15:09:51;;;;;;;19.00;2.83;;;;;;;9.95;83.30;99718.97;8314875;28;20440;-57
2024/01/01 15:13:53;;;;;;;11.68;2.20;;;;;;;9.94;83.38;99728.06;8347420;28;20120;-57
2024/01/01 15:17:53;;;;;;;22.88;2.72;;;;;;;9.95;83.62;99737.88;8348088;28;20052;-56
2024/01/01 15:21:54;;;;;;;23.55;3.88;;;;;;;9.94;83.37;99744.25;8340479;28;20041;-57
2024/01/01 15:25:54;;;;;;;22.38;2.78;;;;;;;9.89;83.96;99735.81;8328929;28;20496;-56
2024/01/01 15:29:55;;;;;;;13.23;2.15;;;;;;;9.88;83.96;99739.47;8328627;28;20053;-55
2024/01/01 15:33:56;;;;;;;21.40;2.70;;;;;;;9.86;84.29;99736.94;8328906;28;20397;-55
2024/01/01 15:37:59;;;;;;;23.10;2.88;;;;;;;9.90;83.42;99737.47;8328300;28;20061;-57
2024/01/01 15:42:01;;;;;;;19.27;2.72;;;;;;;9.91;83.33;99749.97;8329326;28;20025;-58
2024/01/01 15:46:04;;;;;;;13.02;2.13;;;;;;;9.87;84.14;99770.19;8326139;28;20037;-55
2024/01/01 15:50:06;;;;;;;13.82;2.92;;;;;;;9.87;84.30;99770.19;8318798;28;20043;-55
2024/01/01 15:54:06;;;;;;;19.20;2.92;;;;;;;9.83;84.71;99775.03;8336639;28;20041;-57
2024/01/01 15:58:07;;;;;;;10.90;2.20;;;;;;;9.80;84.92;99769.13;8331901;28;20095;-55
2024/01/01 16:02:08;;;;;;;18.05;2.50;;;;;;;9.76;84.61;99773.97;8336289;28;20451;-55
2024/01/01 16:06:09;;;;;;;19.33;2.30;;;;;;;9.70;84.60;99769.19;8346751;28;20059;-55
2024/01/01 16:10:09;;;;;;;18.83;3.10;;;;;;;9.75;84.00;99769.56;8341565;28;20046;-56
2024/01/01 16:14:10;;;;;;;25.27;3.70;;;;;;;9.72;83.66;99777.97;8330702;28;20049;-56
2024/01/01 16:18:11;;;;;;;18.63;2.60;;;;;;;9.77;83.44;99769.44;8317338;28;20495;-57
2024/01/01 16:22:13;;;;;;;24.77;2.60;;;;;;;9.70;84.36;99773.75;8321870;28;20072;-57
2024/01/01 16:26:14;;;;;;;16.50;2.90;;;;;;;9.65;84.86;99778.75;8323421;28;20041;-57
2024/01/01 16:30:14;;;;;;;17.30;2.53;;;;;;;9.74;84.57;99769.72;8323626;28;20130;-56
2024/01/01 16:34:15;;;;;;;26.17;2.88;;;;;;;9.68;86.50;99786.53;8321839;28;20137;-58
2024/01/01 16:38:18;;;;;;;11.55;2.30;;;;;;;9.66;86.26;99789.38;8323262;28;20041;-57
2024/01/01 16:42:18;;;;;;;16.10;2.40;;;;;;;9.69;85.85;99793.63;8323072;28;20048;-57
2024/01/01 16:46:19;;;;;;;14.75;2.88;;;;;;;9.76;85.88;99795.56;8335106;28;21346;-55
2024/01/01 16:50:19;;;;;;;17.83;3.50;;;;;;;9.68;87.85;99782.00;8339439;28;20061;-56
2024/01/01 16:54:20;;;;;;;18.17;3.15;;;;;;;9.65;89.57;99789.53;8330739;28;20565;-56
2024/01/01 16:58:21;;;;;;;19.73;2.65;;;;;;;9.65;88.79;99789.53;8317769;28;20128;-57
2024/01/01 17:02:22;;;;;;;16.77;2.65;;;;;;;9.65;89.34;99786.84;8322774;28;20543;-57
2024/01/01 17:06:22;;;;;;;11.70;1.85;;;;;;;9.62;89.63;99788.00;8321056;28;20499;-56
2024/01/01 17:10:24;;;;;;;22.77;2.60;;;;;;;9.67;87.52;99785.69;8330705;28;20518;-56
2024/01/01 17:14:25;;;;;;;11.68;2.08;;;;;;;9.75;86.75;99784.91;8335387;28;20040;-57
2024/01/01 17:18:26;;;;;;;15.82;2.47;;;;;;;9.68;86.73;99775.75;8328260;28;20587;-56
2024/01/01 17:22:26;;;;;;;17.83;2.67;;;;;;;9.60;87.69;99778.34;8317996;28;20060;-56
2024/01/01 17:26:27;;;;;;;19.75;3.42;;;;;;;9.58;88.07;99774.97;8328393;28;20060;-56
2024/01/01 17:30:27;;;;;;;22.95;2.78;;;;;;;9.55;87.54;99775.28;8322771;28;20068;-56
2024/01/01 17:34:28;;;;;;;15.95;2.38;;;;;;;9.55;87.16;99776.09;8318405;28;20033;-55
2024/01/01 17:38:28;;;;;;;16.77;2.90;;;;;;;9.55;87.23;99776.09;8339813;28;20056;-55
2024/01/01 17:42:29;;;;;;;10.85;2.35;;;;;;;9.61;86.62;99782.75;8332868;28;20041;-57
2024/01/01 17:46:29;;;;;;;19.35;2.25;;;;;;;9.66;85.69;99789.38;8337184;28;20036;-56
2024/01/01 17:50:30;;;;;;;21.65;3.45;;;;;;;9.74;85.25;99791.31;8337147;28;20037;-57
2024/01/01 17:54:30;;;;;;;11.10;1.98;;;;;;;9.75;84.34;99785.78;8338382;28;20033;-57
2024/01/01 17:58:31;;;;;;;11.00;2.60;;;;;;;9.72;84.68;99787.91;8320369;28;20088;-56
2024/01/01 18:02:31;;;;;;;21.48;2.08;;;;;;;9.76;84.33;99779.38;8321696;28;20048;-56
2024/01/01 18:06:32;;;;;;;23.30;3.03;;;;;;;9.88;83.33;99788.06;8315008;28;20527;-57
2024/01/01 18:10:32;;;;;;;23.48;2.58;;;;;;;9.89;83.45;99789.78;8341673;28;20041;-57
2024/01/01 18:14:35;;;;;;;13.30;2.50;;;;;;;9.80;83.54;99790.72;8347913;28;20041;-56
2024/01/01 18:18:35;;;;;;;22.25;3.35;;;;;;;9.80;83.23;99785.31;8335678;28;20029;-57
2024/01/01 18:22:37;;;;;;;9.20;2.33;;;;;;;9.76;83.17;99789.34;8318366;28;20132;-57
2024/01/01 18:26:37;;;;;;;9.60;1.70;;;;;;;9.78;82.77;99792.72;8320040;28;20034;-55
2024/01/01 18:30:38;;;;;;;16.80;1.90;;;;;;;9.79;82.40;99806.06;8313853;28;20061;-55
2024/01/01 18:34:41;;;;;;;17.60;2.03;;;;;;;9.75;82.80;99798.41;8315831;28;20049;-56
2024/01/01 18:38:42;;;;;;;16.08;2.50;;;;;;;9.81;82.26;99804.06;8349938;28;20505;-56
2024/01/01 18:42:42;;;;;;;13.02;2.20;;;;;;;9.76;82.55;99800.13;8328920;28;20129;-56
2024/01/01 18:46:43;;;;;;;14.15;2.55;;;;;;;9.73;83.02;99811.22;8344055;28;20045;-56
2024/01/01 18:50:43;;;;;;;16.02;2.30;;;;;;;9.74;82.92;99807.53;8363583;28;20048;-57
2024/01/01 18:54:44;;;;;;;24.70;3.30;;;;;;;9.72;83.41;99801.41;8334816;28;20045;-56
2024/01/01 18:58:48;;;;;;;16.48;2.55;;;;;;;9.71;83.58;99807.81;8335212;28;20450;-57